aviador You're here:

RKJK Decoded Metar

KUNSAN in KOREA
Report Time2018-07-18 09:56:00
UTC Time2018-07-18 10:59:07
Flight Rules vfr VFR
Wind330° at 07 kt
W.Decomp.*RWY 36: 6.4 kt HW 2.7 kt LCW
W.Rank330° ranks 1
Current wind is below 330° avg. (9.5)
Visibility9999 m
Phenomena:N/A
Clouds:N/A
Expected CloudBase > 2,400 ft AGL from Temp-Dew spread
CeilingNone
Temp29°C (ISA +14)
Dew Point23°C (70% RH)
Heat Index32.7°C
QNH1010 hPa
Density Alt2,113 ft
Elevation30 ft
Report Wrong Elevation
Raw Report
RKJK 180956Z 33007KT 10SM CLR 29/23 A2983 RMK AO2A SLP105
T02850225 $=

Extra information for RKJK:More info

Metar Taf Metar & Taf Last 4 Metars F.Rules Stats Wind Profile Meteogram Temp Stats Airport Information Weather charts Add Link Nearby VenuesMetar ALERT Operation Metar Decoded Social comments